Time;durP1;ratioP1;P1;durP2;ratioP2;P2;SDS_P1;SDS_P2;PMS_P1;PMS_P2;Temp;Humidity;BMP_temperature;BMP_pressure;BME280_temperature;BME280_humidity;BME280_pressure;Samples;Min_cycle;Max_cycle;Signal;HPM_P1;HPM_P2
2021/06/25 04:30:51;;;;;;;1.70;1.60;;;16.00;99.90;;;;;;6097189;23;21149;-76
2021/06/25 04:33:17;;;;;;;1.53;1.43;;;16.10;99.90;;;;;;4987772;28;20978;-78
2021/06/25 04:35:46;;;;;;;1.70;1.60;;;16.10;99.90;;;;;;4969405;28;20418;-78
2021/06/25 04:38:12;;;;;;;2.73;1.70;;;16.10;99.90;;;;;;4976291;28;20411;-77
2021/06/25 04:40:39;;;;;;;1.93;1.73;;;16.10;99.90;;;;;;4986622;28;20914;-80
2021/06/25 04:43:10;;;;;;;3.47;1.63;;;16.10;99.90;;;;;;4975993;28;20176;-78
2021/06/25 04:45:37;;;;;;;1.70;1.57;;;16.10;99.90;;;;;;4977243;28;20936;-78
2021/06/25 04:48:08;;;;;;;2.33;1.43;;;16.10;99.90;;;;;;4975780;28;20435;-78
2021/06/25 04:50:34;;;;;;;1.20;1.20;;;16.10;99.90;;;;;;4980269;28;20485;-76
2021/06/25 04:52:59;;;;;;;1.70;1.60;;;16.10;99.90;;;;;;4975691;28;20415;-78
2021/06/25 04:55:25;;;;;;;1.53;1.43;;;16.10;99.90;;;;;;4986605;28;20175;-78
2021/06/25 04:57:52;;;;;;;1.50;1.17;;;16.20;99.90;;;;;;4994911;28;20183;-79
2021/06/25 05:00:19;;;;;;;1.33;1.20;;;16.20;99.90;;;;;;4985757;28;20182;-75
2021/06/25 05:02:45;;;;;;;1.30;1.20;;;16.20;99.90;;;;;;4993708;28;20533;-76
2021/06/25 05:05:11;;;;;;;1.50;1.40;;;16.20;99.90;;;;;;4983406;28;20923;-77
2021/06/25 05:07:37;;;;;;;1.63;1.47;;;16.20;99.90;;;;;;4995074;28;20190;-76
2021/06/25 05:10:03;;;;;;;1.40;1.30;;;16.30;99.90;;;;;;4995177;28;20798;-76
2021/06/25 05:12:28;;;;;;;2.23;1.00;;;16.30;99.90;;;;;;4988315;28;20202;-75
2021/06/25 05:14:54;;;;;;;1.83;1.60;;;16.40;99.90;;;;;;4975444;28;20417;-75
2021/06/25 05:17:19;;;;;;;1.63;1.63;;;16.40;99.90;;;;;;4976241;28;20199;-75
2021/06/25 05:19:45;;;;;;;1.57;1.37;;;16.50;99.90;;;;;;4989908;28;20234;-75
2021/06/25 05:22:11;;;;;;;1.30;1.20;;;16.50;99.90;;;;;;4993530;28;20207;-72
2021/06/25 05:24:36;;;;;;;3.17;1.20;;;16.60;99.90;;;;;;4993134;28;20188;-75
2021/06/25 05:27:02;;;;;;;1.77;1.27;;;16.60;99.90;;;;;;4985752;28;20179;-75
2021/06/25 05:29:28;;;;;;;1.20;1.20;;;16.60;99.90;;;;;;4992287;28;20283;-75
2021/06/25 05:31:54;;;;;;;1.90;1.80;;;16.70;99.90;;;;;;4975263;28;20474;-76
2021/06/25 05:34:19;;;;;;;1.93;1.83;;;16.70;99.90;;;;;;4974958;28;20634;-75
2021/06/25 05:36:45;;;;;;;1.70;1.60;;;16.50;99.90;;;;;;4975987;28;20518;-76
2021/06/25 05:39:10;;;;;;;1.90;1.50;;;16.50;99.90;;;;;;4978123;28;20224;-76
2021/06/25 05:41:36;;;;;;;1.33;1.23;;;16.50;99.90;;;;;;4985393;28;20199;-76
2021/06/25 05:44:02;;;;;;;1.30;1.30;;;16.40;99.90;;;;;;4988756;28;20234;-77
2021/06/25 05:46:28;;;;;;;1.93;1.70;;;16.30;99.90;;;;;;4994162;28;20315;-76
2021/06/25 05:48:53;;;;;;;3.00;2.03;;;16.30;99.90;;;;;;4986258;28;21008;-76
2021/06/25 05:51:19;;;;;;;1.97;1.70;;;16.20;99.90;;;;;;4983913;28;20655;-76
2021/06/25 05:53:44;;;;;;;3.10;1.87;;;16.20;99.90;;;;;;4981752;28;20241;-76
2021/06/25 05:56:10;;;;;;;1.80;1.70;;;16.10;99.90;;;;;;4993231;28;20172;-76
2021/06/25 05:58:35;;;;;;;7.03;1.97;;;16.10;99.90;;;;;;4969738;28;20661;-76
2021/06/25 06:01:02;;;;;;;2.20;1.70;;;16.10;99.90;;;;;;4974682;28;20195;-76
2021/06/25 06:03:27;;;;;;;2.50;2.13;;;16.10;99.90;;;;;;4974326;28;20208;-76
2021/06/25 06:05:53;;;;;;;2.63;1.70;;;16.20;99.90;;;;;;4974499;28;20423;-76
2021/06/25 06:08:18;;;;;;;2.37;2.27;;;16.20;99.90;;;;;;4974866;28;20708;-76
2021/06/25 06:10:44;;;;;;;4.30;2.30;;;16.40;99.90;;;;;;4974368;28;20242;-76
2021/06/25 06:13:09;;;;;;;4.50;2.00;;;16.50;99.90;;;;;;4974225;28;20582;-76
2021/06/25 06:15:35;;;;;;;1.97;1.87;;;16.50;99.90;;;;;;4974438;28;20657;-76
2021/06/25 06:18:02;;;;;;;3.60;1.87;;;16.70;99.90;;;;;;4974392;28;20179;-77
2021/06/25 06:20:28;;;;;;;2.30;2.20;;;16.70;99.90;;;;;;4974354;28;20242;-76
2021/06/25 06:33:44;;;;;;;2.00;1.90;;;17.00;99.90;;;;;;4994838;28;20414;-76
2021/06/25 06:36:26;;;;;;;4.27;2.73;;;17.10;99.90;;;;;;4993346;28;21035;-77
2021/06/25 06:38:53;;;;;;;2.97;2.10;;;17.10;99.90;;;;;;4993252;28;20911;-76
2021/06/25 06:41:19;;;;;;;2.53;2.33;;;17.10;99.90;;;;;;4993262;28;20473;-76
2021/06/25 06:43:46;;;;;;;2.93;1.83;;;17.00;99.90;;;;;;4977402;28;20469;-76
2021/06/25 06:46:12;;;;;;;3.67;2.40;;;17.00;99.90;;;;;;4991008;28;20460;-77
2021/06/25 06:48:39;;;;;;;4.43;3.43;;;16.90;99.90;;;;;;4972315;28;20538;-76
2021/06/25 06:51:05;;;;;;;2.90;2.30;;;16.80;99.90;;;;;;4981363;28;20814;-76
2021/06/25 06:53:32;;;;;;;2.93;2.73;;;16.80;99.90;;;;;;4970551;28;20430;-75
2021/06/25 06:55:57;;;;;;;2.33;2.23;;;16.80;99.90;;;;;;4978003;28;20416;-76
2021/06/25 06:58:23;;;;;;;3.27;2.13;;;16.80;99.90;;;;;;4992762;28;20414;-76
2021/06/25 07:00:48;;;;;;;4.73;2.67;;;16.90;99.90;;;;;;4991871;28;20954;-76
2021/06/25 07:03:14;;;;;;;3.00;2.70;;;17.00;99.90;;;;;;4991564;28;20175;-75
2021/06/25 07:05:40;;;;;;;2.93;2.63;;;17.10;99.90;;;;;;4975540;28;20180;-75
2021/06/25 07:08:05;;;;;;;3.43;2.93;;;17.00;99.90;;;;;;4980361;28;20186;-75
2021/06/25 07:10:31;;;;;;;3.63;2.90;;;17.00;99.90;;;;;;4969300;28;20226;-76
2021/06/25 07:12:56;;;;;;;4.10;3.23;;;17.00;99.90;;;;;;4983054;28;20563;-75
2021/06/25 07:15:22;;;;;;;3.43;3.13;;;17.00;99.90;;;;;;4974136;28;20176;-76
2021/06/25 07:17:48;;;;;;;3.67;3.47;;;16.90;99.90;;;;;;4976953;28;20190;-77
2021/06/25 07:20:14;;;;;;;4.33;3.93;;;16.90;99.90;;;;;;4990596;28;20414;-77
2021/06/25 07:22:40;;;;;;;4.87;4.47;;;16.90;99.90;;;;;;4977766;28;20239;-76
2021/06/25 07:25:08;;;;;;;9.80;4.43;;;16.90;99.90;;;;;;4974755;28;20175;-76
2021/06/25 07:27:36;;;;;;;5.13;4.73;;;17.00;99.90;;;;;;4973075;28;20422;-75
2021/06/25 07:30:05;;;;;;;5.23;4.73;;;17.00;99.90;;;;;;4986748;28;20465;-76
2021/06/25 07:32:31;;;;;;;5.33;4.90;;;17.00;99.90;;;;;;4991498;28;20454;-76
2021/06/25 07:34:56;;;;;;;5.57;5.17;;;16.90;99.90;;;;;;4961900;28;20538;-75
2021/06/25 07:37:23;;;;;;;7.30;5.43;;;16.90;99.90;;;;;;4973550;28;20180;-76
2021/06/25 07:39:48;;;;;;;6.27;5.67;;;16.90;99.90;;;;;;4972265;28;20183;-77
2021/06/25 07:42:14;;;;;;;10.40;5.50;;;16.90;99.90;;;;;;4955352;28;20544;-76
2021/06/25 07:44:40;;;;;;;5.30;4.70;;;17.00;99.90;;;;;;4972267;28;20176;-74
2021/06/25 07:47:05;;;;;;;4.63;4.20;;;17.00;99.90;;;;;;4973670;28;20191;-76
2021/06/25 07:49:31;;;;;;;8.30;4.67;;;17.10;99.90;;;;;;4976536;28;20215;-76
2021/06/25 07:51:56;;;;;;;5.87;5.47;;;17.20;99.90;;;;;;4956712;28;20624;-76
2021/06/25 07:54:22;;;;;;;10.47;4.93;;;17.30;99.90;;;;;;4982461;28;20194;-75
2021/06/25 07:56:48;;;;;;;8.37;6.00;;;17.40;99.90;;;;;;4990051;28;20341;-77
2021/06/25 07:59:13;;;;;;;5.93;4.43;;;17.50;99.90;;;;;;4989508;28;20239;-75
2021/06/25 08:01:39;;;;;;;5.87;5.37;;;17.50;99.90;;;;;;4986883;28;20246;-76
2021/06/25 08:04:04;;;;;;;6.83;4.90;;;17.50;99.90;;;;;;4983775;28;20223;-75
2021/06/25 08:06:30;;;;;;;7.83;6.27;;;17.60;99.90;;;;;;4990612;28;20182;-75
2021/06/25 08:08:56;;;;;;;6.23;5.63;;;17.60;99.90;;;;;;4989563;28;20680;-75
2021/06/25 08:11:22;;;;;;;6.33;5.83;;;17.70;99.90;;;;;;4990659;28;20669;-76
2021/06/25 08:13:47;;;;;;;10.50;6.40;;;17.70;99.90;;;;;;4991539;28;20412;-76
2021/06/25 08:16:13;;;;;;;8.30;6.70;;;17.80;99.90;;;;;;4985552;28;20266;-76
2021/06/25 08:18:39;;;;;;;8.57;5.50;;;17.80;99.90;;;;;;4972104;28;20187;-75
2021/06/25 08:21:05;;;;;;;6.20;5.70;;;18.00;99.90;;;;;;4975674;28;20195;-74
2021/06/25 08:23:31;;;;;;;5.27;4.77;;;18.10;99.90;;;;;;4991538;28;20194;-75
2021/06/25 08:25:56;;;;;;;4.60;4.20;;;18.20;99.90;;;;;;4988862;28;20438;-75
2021/06/25 08:28:22;;;;;;;3.70;3.47;;;18.10;99.90;;;;;;4972993;28;20233;-75
2021/06/25 08:30:48;;;;;;;3.40;3.17;;;18.10;99.90;;;;;;4976653;28;20180;-75
2021/06/25 08:33:14;;;;;;;3.83;3.50;;;18.00;99.90;;;;;;4991286;28;20437;-75
2021/06/25 08:35:40;;;;;;;2.90;2.70;;;18.10;99.90;;;;;;4991620;28;20199;-75
2021/06/25 08:38:05;;;;;;;3.13;2.30;;;18.10;99.90;;;;;;4977590;28;20183;-75
2021/06/25 08:40:31;;;;;;;2.53;2.33;;;18.20;99.90;;;;;;4990714;28;20554;-75
2021/06/25 08:42:57;;;;;;;3.10;2.90;;;18.40;99.90;;;;;;4985367;28;20196;-75
2021/06/25 08:45:24;;;;;;;2.27;2.07;;;18.50;99.90;;;;;;4971874;28;20207;-75
2021/06/25 08:47:51;;;;;;;2.13;2.03;;;18.60;99.90;;;;;;4972279;28;20187;-74
2021/06/25 08:50:20;;;;;;;1.67;1.57;;;18.50;99.90;;;;;;4971830;28;20498;-75
2021/06/25 08:52:47;;;;;;;2.10;1.70;;;18.40;99.90;;;;;;4971534;28;20454;-75
2021/06/25 08:55:15;;;;;;;2.10;2.00;;;18.50;99.90;;;;;;4978375;28;20503;-75
2021/06/25 08:57:40;;;;;;;2.30;2.20;;;18.30;99.90;;;;;;4982224;28;20431;-74
2021/06/25 09:00:09;;;;;;;2.27;2.07;;;18.10;99.90;;;;;;4971911;28;20531;-75
2021/06/25 09:02:36;;;;;;;4.00;2.30;;;17.90;99.90;;;;;;4972149;28;20211;-74
2021/06/25 09:05:07;;;;;;;3.00;2.80;;;17.80;99.90;;;;;;4972663;28;20434;-76
2021/06/25 09:07:43;;;;;;;2.70;2.50;;;17.70;99.90;;;;;;4971673;28;20521;-75
2021/06/25 09:10:11;;;;;;;2.63;2.43;;;17.50;99.90;;;;;;4985114;28;20473;-75
2021/06/25 09:12:38;;;;;;;2.37;2.17;;;17.50;99.90;;;;;;4988435;28;20568;-75
2021/06/25 09:15:11;;;;;;;3.80;3.50;;;17.50;99.90;;;;;;4981598;28;20428;-75
2021/06/25 09:17:59;;;;;;;3.20;3.00;;;17.30;99.90;;;;;;4994708;28;20414;-76
2021/06/25 09:20:37;;;;;;;4.07;3.77;;;17.30;99.90;;;;;;4983721;28;20461;-75
2021/06/25 09:23:05;;;;;;;4.87;3.63;;;17.30;99.90;;;;;;5006810;28;20422;-75
2021/06/25 09:25:49;;;;;;;5.17;3.50;;;17.30;99.90;;;;;;4985961;28;20510;-75
2021/06/25 09:28:48;;;;;;;7.20;4.40;;;17.30;99.90;;;;;;4974891;28;20436;-75
2021/06/25 09:31:17;;;;;;;5.80;4.73;;;17.40;99.90;;;;;;4954748;28;20580;-75
2021/06/25 09:33:54;;;;;;;5.50;4.53;;;17.50;99.90;;;;;;4977220;28;20497;-76
2021/06/25 09:36:24;;;;;;;5.47;5.00;;;17.60;99.90;;;;;;4997020;28;21054;-74
2021/06/25 09:39:04;;;;;;;11.33;6.40;;;17.70;99.90;;;;;;4974781;28;20991;-74
2021/06/25 09:41:30;;;;;;;6.87;6.17;;;17.80;99.90;;;;;;4975039;28;20928;-74
2021/06/25 09:43:58;;;;;;;8.87;6.50;;;17.90;99.90;;;;;;4994015;28;20532;-75
2021/06/25 09:46:44;;;;;;;8.43;6.43;;;17.80;99.90;;;;;;4993679;28;20271;-76
2021/06/25 09:49:11;;;;;;;8.73;7.37;;;17.90;99.90;;;;;;4990881;28;20470;-74
2021/06/25 09:51:39;;;;;;;7.63;6.80;;;17.90;99.90;;;;;;4974563;28;20842;-76
2021/06/25 09:54:15;;;;;;;9.03;7.20;;;17.90;99.90;;;;;;4993373;28;20407;-76
2021/06/25 09:56:54;;;;;;;8.37;7.20;;;17.90;99.90;;;;;;4993682;28;20423;-75
2021/06/25 10:02:21;;;;;;;10.70;7.87;;;17.80;99.90;;;;;;4984184;28;20439;-77
2021/06/25 10:04:49;;;;;;;11.63;8.60;;;17.90;99.90;;;;;;4974381;28;20435;-76
2021/06/25 10:07:20;;;;;;;12.13;9.57;;;17.90;99.90;;;;;;4974693;28;20415;-76
2021/06/25 10:09:48;;;;;;;11.43;9.57;;;18.00;99.90;;;;;;4984028;28;20871;-77
2021/06/25 10:12:16;;;;;;;12.00;10.70;;;18.10;99.90;;;;;;4993994;28;20996;-76
2021/06/25 10:14:42;;;;;;;11.43;10.23;;;17.90;99.90;;;;;;4986438;28;20435;-76
2021/06/25 10:17:09;;;;;;;9.93;8.80;;;17.90;99.90;;;;;;4988327;28;20839;-77
2021/06/25 10:19:47;;;;;;;13.73;9.50;;;17.90;99.90;;;;;;4993994;28;20411;-78
2021/06/25 10:22:17;;;;;;;11.00;9.67;;;17.90;99.90;;;;;;4975445;28;20442;-78
2021/06/25 10:24:48;;;;;;;12.27;9.90;;;17.90;99.90;;;;;;4974353;28;20415;-76
2021/06/25 10:27:16;;;;;;;11.50;9.83;;;17.90;99.90;;;;;;4974303;28;20545;-77
2021/06/25 10:29:41;;;;;;;11.37;9.20;;;18.00;99.90;;;;;;4971736;28;20461;-75
2021/06/25 10:32:09;;;;;;;11.67;9.10;;;18.00;99.90;;;;;;5001567;28;20460;-77
2021/06/25 10:34:36;;;;;;;11.30;9.30;;;17.90;99.90;;;;;;4999790;28;20175;-76
2021/06/25 10:37:04;;;;;;;14.70;9.73;;;18.00;99.90;;;;;;5007278;28;20917;-77
2021/06/25 10:39:34;;;;;;;10.53;9.53;;;17.80;99.90;;;;;;4996122;28;20432;-77
2021/06/25 10:42:03;;;;;;;12.17;10.60;;;17.90;99.90;;;;;;5003366;28;20450;-78
2021/06/25 10:44:42;;;;;;;12.93;11.30;;;17.80;99.90;;;;;;4976827;28;20464;-77
2021/06/25 10:47:22;;;;;;;14.97;12.40;;;17.70;99.90;;;;;;4975806;28;20418;-77
2021/06/25 10:50:03;;;;;;;13.90;12.40;;;17.50;99.90;;;;;;4970102;28;20987;-77
2021/06/25 10:52:39;;;;;;;14.53;12.87;;;17.40;99.90;;;;;;4976341;28;20431;-75
2021/06/25 10:55:07;;;;;;;17.10;12.80;;;17.50;99.90;;;;;;5003378;28;20464;-76
2021/06/25 10:57:36;;;;;;;20.67;13.40;;;17.40;99.90;;;;;;4992838;28;20834;-74
2021/06/25 11:00:05;;;;;;;22.00;15.27;;;17.30;99.90;;;;;;4986532;28;20427;-74
2021/06/25 11:02:40;;;;;;;20.60;15.50;;;17.30;99.90;;;;;;4973059;28;20559;-75
2021/06/25 11:05:26;;;;;;;20.90;15.53;;;17.30;99.90;;;;;;4961921;28;20446;-75
2021/06/25 11:07:52;;;;;;;19.03;15.63;;;17.30;99.90;;;;;;4992392;28;20454;-77
2021/06/25 11:10:25;;;;;;;24.30;16.40;;;17.30;99.90;;;;;;4991857;28;20828;-76
2021/06/25 11:13:13;;;;;;;27.13;17.73;;;17.30;99.90;;;;;;4989768;28;20447;-77
2021/06/25 11:15:47;;;;;;;23.27;17.27;;;17.40;99.90;;;;;;4975736;28;20419;-76
2021/06/25 11:18:19;;;;;;;24.33;18.57;;;17.50;99.90;;;;;;4973130;28;20415;-78
2021/06/25 11:20:58;;;;;;;26.40;18.20;;;17.60;99.90;;;;;;4978548;28;20434;-76
2021/06/25 11:23:39;;;;;;;25.07;17.97;;;17.60;99.90;;;;;;5005664;28;20432;-75
2021/06/25 11:26:14;;;;;;;23.80;16.50;;;17.80;99.90;;;;;;4984356;28;20431;-76
2021/06/25 11:28:50;;;;;;;23.03;16.93;;;17.90;99.90;;;;;;4985405;28;20509;-76
2021/06/25 11:31:19;;;;;;;30.47;16.93;;;18.10;99.90;;;;;;4974180;28;21243;-75
2021/06/25 11:33:48;;;;;;;25.20;16.50;;;18.30;99.90;;;;;;4983678;28;20454;-76
2021/06/25 11:36:13;;;;;;;21.30;15.87;;;18.40;99.90;;;;;;4974441;28;20549;-76
2021/06/25 11:39:03;;;;;;;21.07;16.50;;;18.60;99.90;;;;;;4990688;28;20470;-75
2021/06/25 11:42:08;;;;;;;18.70;15.73;;;18.60;99.90;;;;;;4991537;28;20262;-75
2021/06/25 11:44:39;;;;;;;22.00;16.00;;;18.40;99.90;;;;;;4991821;28;20411;-75
2021/06/25 11:47:09;;;;;;;19.87;14.37;;;18.30;99.90;;;;;;4992332;28;20661;-75
2021/06/25 11:49:45;;;;;;;18.97;15.70;;;18.20;99.90;;;;;;4991960;28;20465;-76
2021/06/25 11:52:21;;;;;;;17.87;14.53;;;18.20;99.90;;;;;;4992069;28;20422;-75
2021/06/25 11:54:57;;;;;;;15.20;12.27;;;18.20;99.90;;;;;;4991691;28;20420;-75
2021/06/25 11:57:25;;;;;;;14.00;11.87;;;18.20;99.90;;;;;;4992457;28;20398;-75
2021/06/25 12:00:01;;;;;;;12.97;11.13;;;18.30;99.90;;;;;;4992079;28;20501;-75
2021/06/25 12:02:34;;;;;;;13.70;11.37;;;18.40;99.90;;;;;;4992266;28;20408;-76
2021/06/25 12:04:59;;;;;;;12.33;11.10;;;18.60;99.90;;;;;;4991720;28;20421;-75
2021/06/25 12:07:25;;;;;;;10.63;9.23;;;18.80;99.90;;;;;;4992257;28;20779;-76
2021/06/25 12:09:52;;;;;;;8.47;7.60;;;18.90;99.90;;;;;;4991741;28;20205;-74
2021/06/25 12:12:25;;;;;;;8.97;7.37;;;19.20;99.90;;;;;;4991786;28;20278;-75
2021/06/25 12:14:59;;;;;;;9.30;7.90;;;19.40;99.90;;;;;;4991493;28;20414;-75
2021/06/25 12:17:58;;;;;;;9.80;7.03;;;19.30;99.90;;;;;;4992990;28;20406;-74
2021/06/25 12:20:29;;;;;;;7.20;6.50;;;19.30;99.90;;;;;;4931847;28;20413;-75
2021/06/25 12:23:00;;;;;;;8.40;6.57;;;19.30;99.90;;;;;;4989243;28;20441;-75
2021/06/25 12:25:50;;;;;;;6.23;5.50;;;19.30;99.90;;;;;;4986828;28;20415;-75
2021/06/25 12:28:17;;;;;;;7.67;6.87;;;19.40;99.90;;;;;;4987541;28;20422;-75
2021/06/25 12:30:44;;;;;;;7.60;6.90;;;19.30;99.90;;;;;;4987289;28;20823;-76
2021/06/25 12:33:10;;;;;;;6.43;5.90;;;19.30;99.90;;;;;;4987815;28;20465;-76
2021/06/25 12:35:39;;;;;;;6.00;5.50;;;19.10;99.90;;;;;;4987679;28;20521;-76
2021/06/25 12:38:07;;;;;;;9.00;5.30;;;19.00;99.90;;;;;;4989106;28;20438;-75
2021/06/25 12:40:49;;;;;;;5.50;4.97;;;18.90;99.90;;;;;;4988097;28;20419;-75
2021/06/25 12:43:20;;;;;;;4.87;4.50;;;18.80;99.90;;;;;;4987598;28;20469;-76
2021/06/25 12:45:51;;;;;;;5.50;4.90;;;18.80;99.90;;;;;;4987320;28;20525;-76
2021/06/25 12:48:21;;;;;;;6.60;6.10;;;18.70;99.90;;;;;;4987987;28;20411;-76
2021/06/25 12:50:47;;;;;;;5.90;5.30;;;18.80;99.90;;;;;;4988142;28;20991;-75
2021/06/25 12:53:28;;;;;;;6.33;5.77;;;19.00;99.90;;;;;;4989720;28;20437;-76
2021/06/25 12:55:55;;;;;;;6.70;6.03;;;19.10;99.90;;;;;;4992737;28;20479;-76
2021/06/25 12:58:21;;;;;;;7.67;5.63;;;19.30;99.90;;;;;;4992025;28;20510;-76
2021/06/25 13:00:54;;;;;;;6.67;6.00;;;19.60;99.90;;;;;;4991256;28;20799;-75
2021/06/25 13:03:20;;;;;;;10.90;6.37;;;19.70;99.90;;;;;;4992037;28;20419;-75
2021/06/25 13:05:46;;;;;;;8.23;7.43;;;19.90;99.90;;;;;;4990424;28;20422;-76
2021/06/25 13:08:22;;;;;;;7.90;7.20;;;19.90;99.90;;;;;;4989387;28;20558;-75
2021/06/25 13:10:49;;;;;;;12.33;7.97;;;20.00;99.90;;;;;;4989400;28;20222;-74
2021/06/25 13:13:19;;;;;;;8.43;7.63;;;20.10;99.90;;;;;;4990395;28;20858;-75
2021/06/25 13:15:57;;;;;;;8.90;7.00;;;20.10;99.90;;;;;;4991603;28;20505;-75
2021/06/25 13:18:26;;;;;;;7.03;6.43;;;20.20;99.90;;;;;;4991357;28;20460;-75
2021/06/25 13:21:30;;;;;;;6.10;5.60;;;20.20;99.90;;;;;;4964669;28;20470;-73
2021/06/25 13:24:10;;;;;;;8.80;6.20;;;20.50;99.90;;;;;;4892597;29;20784;-72
2021/06/25 13:26:54;;;;;;;12.30;6.60;;;20.70;99.90;;;;;;4892352;29;20451;-71
2021/06/25 13:29:23;;;;;;;8.43;6.53;;;20.70;99.90;;;;;;4949439;28;20540;-72
2021/06/25 13:31:55;;;;;;;8.50;7.37;;;20.60;99.90;;;;;;4992834;28;20978;-72
2021/06/25 13:34:24;;;;;;;11.13;7.00;;;20.60;99.90;;;;;;4989711;28;20419;-73
2021/06/25 13:37:02;;;;;;;8.93;7.63;;;20.60;99.90;;;;;;4981590;28;20453;-71
2021/06/25 13:39:33;;;;;;;7.47;6.87;;;20.50;99.90;;;;;;4995112;28;20425;-72
2021/06/25 13:42:12;;;;;;;8.50;7.67;;;20.60;99.90;;;;;;4975967;28;20462;-73
2021/06/25 13:44:38;;;;;;;11.50;8.87;;;20.50;99.90;;;;;;4992391;28;20430;-73
2021/06/25 13:47:08;;;;;;;10.67;8.67;;;20.50;99.90;;;;;;4992085;28;20998;-73
2021/06/25 13:49:35;;;;;;;10.07;8.50;;;20.50;99.90;;;;;;4978607;28;20212;-73
2021/06/25 13:52:22;;;;;;;8.30;7.50;;;20.50;99.90;;;;;;4976987;28;20454;-71
2021/06/25 13:54:48;;;;;;;8.83;7.90;;;20.50;99.90;;;;;;4973930;28;20439;-72
2021/06/25 13:57:19;;;;;;;9.83;8.83;;;20.50;99.90;;;;;;4992012;28;20494;-72
2021/06/25 13:59:45;;;;;;;14.40;9.17;;;20.50;99.90;;;;;;4982992;28;20439;-73
2021/06/25 14:02:10;;;;;;;10.70;8.70;;;20.50;99.90;;;;;;4975466;28;20543;-72
2021/06/25 14:04:36;;;;;;;7.70;6.90;;;20.50;99.90;;;;;;4990976;28;20191;-73
2021/06/25 14:07:02;;;;;;;8.97;8.13;;;20.60;99.90;;;;;;4995369;28;20203;-73
2021/06/25 14:09:33;;;;;;;13.83;7.50;;;20.70;99.90;;;;;;4992410;28;20298;-73
2021/06/25 14:12:12;;;;;;;8.57;7.87;;;20.80;99.90;;;;;;4992987;28;20439;-70
2021/06/25 14:14:50;;;;;;;8.87;8.07;;;20.90;99.90;;;;;;4990568;28;20445;-73
2021/06/25 14:17:30;;;;;;;8.33;7.47;;;21.10;99.90;;;;;;4992100;28;20446;-73
2021/06/25 14:19:55;;;;;;;8.70;6.37;;;21.20;99.90;;;;;;4973313;28;20502;-74
2021/06/25 14:22:21;;;;;;;8.63;7.73;;;21.20;99.90;;;;;;4973299;28;20884;-73
2021/06/25 14:24:46;;;;;;;7.17;6.57;;;21.20;99.90;;;;;;4992272;28;20198;-73
2021/06/25 14:27:12;;;;;;;8.37;7.40;;;21.20;99.90;;;;;;4974944;28;20246;-73
2021/06/25 14:29:38;;;;;;;6.93;6.33;;;21.20;99.90;;;;;;4991300;28;20217;-73
2021/06/25 14:32:04;;;;;;;7.33;6.73;;;21.10;99.90;;;;;;4992396;28;20242;-73
2021/06/25 14:34:31;;;;;;;7.10;6.50;;;21.10;99.90;;;;;;4989495;28;20968;-72
2021/06/25 14:36:57;;;;;;;8.00;6.63;;;21.00;99.90;;;;;;4974433;28;20184;-73
2021/06/25 14:39:22;;;;;;;8.00;7.20;;;21.00;99.90;;;;;;4973378;28;20435;-73
2021/06/25 14:41:48;;;;;;;6.43;5.83;;;21.10;99.90;;;;;;4971538;28;20211;-72
2021/06/25 14:44:13;;;;;;;6.60;5.40;;;21.40;99.90;;;;;;4979849;28;20412;-73
2021/06/25 14:46:39;;;;;;;6.63;6.10;;;21.50;99.90;;;;;;4980410;28;20254;-72
2021/06/25 14:49:04;;;;;;;7.40;6.70;;;21.50;99.90;;;;;;4981565;28;20693;-73
2021/06/25 14:51:30;;;;;;;5.97;5.40;;;21.40;99.90;;;;;;4983983;28;20315;-71
2021/06/25 14:53:55;;;;;;;6.07;5.47;;;21.30;99.90;;;;;;4966310;28;20783;-72
2021/06/25 14:56:21;;;;;;;5.50;5.00;;;21.30;99.90;;;;;;4981685;28;20268;-73
2021/06/25 14:58:47;;;;;;;4.93;4.53;;;21.40;99.90;;;;;;4987979;28;20183;-71
2021/06/25 15:01:13;;;;;;;4.80;4.40;;;21.50;99.90;;;;;;4980554;28;20477;-72
2021/06/25 15:03:38;;;;;;;5.70;5.20;;;21.40;99.90;;;;;;4985117;28;20261;-71
2021/06/25 15:06:04;;;;;;;5.20;4.80;;;21.30;99.90;;;;;;4984894;28;20180;-71
2021/06/25 15:08:30;;;;;;;5.27;4.83;;;21.30;99.90;;;;;;4983012;28;20218;-72
2021/06/25 15:10:55;;;;;;;5.20;4.70;;;21.20;99.90;;;;;;4979741;28;20250;-69
2021/06/25 15:13:21;;;;;;;6.53;3.87;;;21.20;99.90;;;;;;4983149;28;20187;-71
2021/06/25 15:15:48;;;;;;;5.10;4.70;;;21.10;99.90;;;;;;4968848;28;20215;-71
2021/06/25 15:18:14;;;;;;;7.17;4.60;;;21.20;99.90;;;;;;4982311;28;20198;-71
2021/06/25 15:20:40;;;;;;;4.73;4.33;;;21.10;99.90;;;;;;4988302;28;20430;-71
2021/06/25 15:23:06;;;;;;;4.90;4.50;;;20.90;99.90;;;;;;4989516;28;20172;-72
2021/06/25 15:25:33;;;;;;;4.40;4.00;;;20.80;99.90;;;;;;4987965;28;20184;-71
2021/06/25 15:27:59;;;;;;;5.30;4.40;;;20.80;99.90;;;;;;4979122;28;20438;-72
2021/06/25 15:30:25;;;;;;;4.50;4.10;;;20.70;99.90;;;;;;4975126;28;20462;-71
2021/06/25 15:32:54;;;;;;;5.10;4.20;;;20.80;99.90;;;;;;4985070;28;20256;-68
2021/06/25 15:35:20;;;;;;;4.30;4.00;;;20.80;99.90;;;;;;4983645;28;20415;-72
2021/06/25 15:37:46;;;;;;;5.83;5.40;;;20.80;99.90;;;;;;4985138;28;20437;-69
2021/06/25 15:40:12;;;;;;;5.00;4.60;;;20.80;99.90;;;;;;4985385;28;20431;-72
2021/06/25 15:42:38;;;;;;;4.57;4.27;;;20.70;99.90;;;;;;4988219;28;20207;-72
2021/06/25 15:45:08;;;;;;;5.13;4.80;;;20.70;99.90;;;;;;4974357;28;20448;-72
2021/06/25 15:47:34;;;;;;;4.00;3.70;;;20.70;99.90;;;;;;4962549;28;20194;-70
2021/06/25 15:50:00;;;;;;;8.80;4.30;;;20.80;99.90;;;;;;4975961;28;20469;-72
2021/06/25 15:52:26;;;;;;;6.90;5.03;;;20.80;99.90;;;;;;4981693;28;20448;-72
2021/06/25 15:54:51;;;;;;;5.03;4.60;;;20.90;99.90;;;;;;4983862;28;20426;-72
2021/06/25 15:57:17;;;;;;;6.27;4.77;;;21.00;99.90;;;;;;4984077;28;20191;-72
2021/06/25 15:59:43;;;;;;;5.80;5.30;;;21.10;99.90;;;;;;4977065;28;20259;-73
2021/06/25 16:02:09;;;;;;;6.60;5.60;;;21.00;99.90;;;;;;4976532;28;20210;-72
2021/06/25 16:04:34;;;;;;;5.50;4.93;;;21.10;99.90;;;;;;4986313;28;20206;-72
2021/06/25 16:07:00;;;;;;;5.40;5.00;;;21.10;99.90;;;;;;4981057;28;20431;-69
2021/06/25 16:11:54;;;;;;;11.40;6.20;;;21.30;99.90;;;;;;4979536;28;20208;-72
2021/06/25 16:14:20;;;;;;;5.20;4.70;;;21.40;99.90;;;;;;4977502;28;20474;-72
2021/06/25 16:16:45;;;;;;;6.10;5.50;;;21.40;99.90;;;;;;4971467;28;20196;-71
2021/06/25 16:19:15;;;;;;;6.27;5.67;;;21.40;99.90;;;;;;4979283;28;20191;-72
2021/06/25 16:21:43;;;;;;;7.60;5.90;;;21.40;99.90;;;;;;4982438;28;20244;-73
2021/06/25 16:24:13;;;;;;;7.30;6.70;;;21.40;99.90;;;;;;4988329;28;20434;-69
2021/06/25 16:26:39;;;;;;;5.90;5.40;;;21.40;99.90;;;;;;4986756;28;20445;-71
2021/06/25 16:29:05;;;;;;;6.20;4.70;;;21.30;99.90;;;;;;4986982;28;20466;-71
2021/06/25 16:31:30;;;;;;;7.47;5.57;;;21.20;99.90;;;;;;4979687;28;20474;-71
2021/06/25 16:33:56;;;;;;;6.40;5.90;;;21.30;99.90;;;;;;4979316;28;20267;-71
2021/06/25 16:36:21;;;;;;;6.17;5.63;;;21.20;99.90;;;;;;4974161;28;20617;-72
2021/06/25 16:38:47;;;;;;;7.70;5.97;;;21.30;99.90;;;;;;4952596;28;20184;-71
2021/06/25 16:41:14;;;;;;;6.00;5.53;;;21.30;99.90;;;;;;4972518;28;20200;-73
2021/06/25 16:43:39;;;;;;;7.70;5.43;;;21.30;99.90;;;;;;4982239;28;20266;-72
2021/06/25 16:46:05;;;;;;;6.63;6.13;;;21.30;99.90;;;;;;4971808;28;20533;-72
2021/06/25 16:48:31;;;;;;;6.17;5.60;;;21.20;99.90;;;;;;4981580;28;20728;-72
2021/06/25 16:50:57;;;;;;;7.37;6.77;;;21.10;99.90;;;;;;4978724;28;20235;-72
2021/06/25 16:53:22;;;;;;;9.00;6.70;;;21.20;99.90;;;;;;4975769;28;20183;-73
2021/06/25 16:55:48;;;;;;;7.73;7.03;;;21.20;99.90;;;;;;4991096;28;20183;-72
2021/06/25 16:58:17;;;;;;;10.33;6.83;;;21.10;99.90;;;;;;4990456;28;20183;-72
2021/06/25 17:00:44;;;;;;;7.87;7.17;;;21.10;99.90;;;;;;4987067;28;20198;-72
2021/06/25 17:03:10;;;;;;;7.63;6.80;;;21.10;99.90;;;;;;4989569;28;20449;-72
2021/06/25 17:05:36;;;;;;;7.87;7.27;;;21.10;99.90;;;;;;4986239;28;21144;-72
2021/06/25 17:08:03;;;;;;;7.97;7.30;;;21.10;99.90;;;;;;4991465;28;20429;-72
2021/06/25 17:10:29;;;;;;;7.70;7.00;;;21.10;99.90;;;;;;4987101;28;20207;-72
2021/06/25 17:12:55;;;;;;;8.63;7.70;;;21.00;99.90;;;;;;4982877;28;20471;-73
2021/06/25 17:15:20;;;;;;;9.10;8.27;;;20.90;99.90;;;;;;4991581;28;20419;-72
2021/06/25 17:17:46;;;;;;;7.30;6.70;;;20.90;99.90;;;;;;4990923;28;20827;-71
2021/06/25 17:20:11;;;;;;;10.13;8.07;;;20.90;99.90;;;;;;4984080;28;20241;-72
2021/06/25 17:22:37;;;;;;;7.73;7.03;;;20.90;99.90;;;;;;4988605;28;20700;-72
2021/06/25 17:25:05;;;;;;;10.50;8.07;;;20.80;99.90;;;;;;4989426;28;20191;-71
2021/06/25 17:27:31;;;;;;;8.80;7.33;;;20.70;99.90;;;;;;4987583;28;20199;-74
2021/06/25 17:29:57;;;;;;;9.33;7.10;;;20.60;99.90;;;;;;4990329;28;20458;-70
2021/06/25 17:32:22;;;;;;;8.70;7.80;;;20.50;99.90;;;;;;4988230;28;20508;-72
2021/06/25 17:34:48;;;;;;;11.47;8.50;;;20.50;99.90;;;;;;4990223;28;20183;-71
2021/06/25 17:37:13;;;;;;;10.90;8.50;;;20.50;99.90;;;;;;4978457;28;20267;-72